sensor_id;sensor_type;location;lat;lon;timestamp;temperature;humidity
16174;DHT22;14031;50.158;8.626;2022-10-17T00:00:53;15.40;99.90
16174;DHT22;14031;50.158;8.626;2022-10-17T00:03:20;15.40;99.90
16174;DHT22;14031;50.158;8.626;2022-10-17T00:05:47;15.40;99.90
16174;DHT22;14031;50.158;8.626;2022-10-17T00:08:16;15.40;99.90
16174;DHT22;14031;50.158;8.626;2022-10-17T00:10:43;15.30;99.90
16174;DHT22;14031;50.158;8.626;2022-10-17T00:13:11;15.30;99.90
16174;DHT22;14031;50.158;8.626;2022-10-17T00:15:41;15.30;99.90
16174;DHT22;14031;50.158;8.626;2022-10-17T00:18:08;15.30;99.90
16174;DHT22;14031;50.158;8.626;2022-10-17T00:20:35;15.30;99.90
16174;DHT22;14031;50.158;8.626;2022-10-17T00:23:02;15.30;99.90
16174;DHT22;14031;50.158;8.626;2022-10-17T00:25:28;15.30;99.90
16174;DHT22;14031;50.158;8.626;2022-10-17T00:27:55;15.30;99.90
16174;DHT22;14031;50.158;8.626;2022-10-17T00:30:23;15.30;99.90
16174;DHT22;14031;50.158;8.626;2022-10-17T00:32:50;15.30;99.90
16174;DHT22;14031;50.158;8.626;2022-10-17T00:35:17;15.30;99.90
16174;DHT22;14031;50.158;8.626;2022-10-17T00:37:46;15.30;99.90
16174;DHT22;14031;50.158;8.626;2022-10-17T00:40:13;15.30;99.90
16174;DHT22;14031;50.158;8.626;2022-10-17T00:42:40;15.30;99.90
16174;DHT22;14031;50.158;8.626;2022-10-17T00:45:14;15.30;99.90
16174;DHT22;14031;50.158;8.626;2022-10-17T00:47:44;15.30;99.90
16174;DHT22;14031;50.158;8.626;2022-10-17T00:50:12;15.30;99.90
16174;DHT22;14031;50.158;8.626;2022-10-17T00:52:41;15.30;99.90
16174;DHT22;14031;50.158;8.626;2022-10-17T00:55:11;15.30;99.90
16174;DHT22;14031;50.158;8.626;2022-10-17T00:57:40;15.20;99.90
16174;DHT22;14031;50.158;8.626;2022-10-17T01:00:12;15.20;99.90
16174;DHT22;14031;50.158;8.626;2022-10-17T01:02:39;15.20;99.90
16174;DHT22;14031;50.158;8.626;2022-10-17T01:05:09;15.20;99.90
16174;DHT22;14031;50.158;8.626;2022-10-17T01:07:37;15.20;99.90
16174;DHT22;14031;50.158;8.626;2022-10-17T01:10:05;15.20;99.90
16174;DHT22;14031;50.158;8.626;2022-10-17T01:12:39;15.20;99.90
16174;DHT22;14031;50.158;8.626;2022-10-17T01:15:11;15.20;99.90
16174;DHT22;14031;50.158;8.626;2022-10-17T01:17:46;15.10;99.90
16174;DHT22;14031;50.158;8.626;2022-10-17T01:20:45;15.20;99.90
16174;DHT22;14031;50.158;8.626;2022-10-17T01:23:29;15.10;99.90
16174;DHT22;14031;50.158;8.626;2022-10-17T01:26:04;15.10;99.90
16174;DHT22;14031;50.158;8.626;2022-10-17T01:29:08;15.10;99.90
16174;DHT22;14031;50.158;8.626;2022-10-17T01:31:45;15.00;99.90
16174;DHT22;14031;50.158;8.626;2022-10-17T01:34:17;15.00;99.90
16174;DHT22;14031;50.158;8.626;2022-10-17T01:36:49;15.00;99.90
16174;DHT22;14031;50.158;8.626;2022-10-17T01:39:22;15.00;99.90
16174;DHT22;14031;50.158;8.626;2022-10-17T01:41:57;15.00;99.90
16174;DHT22;14031;50.158;8.626;2022-10-17T01:44:33;15.00;99.90
16174;DHT22;14031;50.158;8.626;2022-10-17T01:47:06;15.00;99.90
16174;DHT22;14031;50.158;8.626;2022-10-17T01:49:34;15.00;99.90
16174;DHT22;14031;50.158;8.626;2022-10-17T01:52:07;15.00;99.90
16174;DHT22;14031;50.158;8.626;2022-10-17T01:54:42;15.00;99.90
16174;DHT22;14031;50.158;8.626;2022-10-17T01:57:18;15.00;99.90
16174;DHT22;14031;50.158;8.626;2022-10-17T01:59:47;15.00;99.90
16174;DHT22;14031;50.158;8.626;2022-10-17T02:02:18;15.00;99.90
16174;DHT22;14031;50.158;8.626;2022-10-17T02:04:46;15.00;99.90
16174;DHT22;14031;50.158;8.626;2022-10-17T02:07:14;15.00;99.90
16174;DHT22;14031;50.158;8.626;2022-10-17T02:09:41;15.00;99.90
16174;DHT22;14031;50.158;8.626;2022-10-17T02:12:32;15.00;99.90
16174;DHT22;14031;50.158;8.626;2022-10-17T02:15:11;15.00;99.90
16174;DHT22;14031;50.158;8.626;2022-10-17T02:17:48;14.90;99.90
16174;DHT22;14031;50.158;8.626;2022-10-17T02:20:22;14.90;99.90
16174;DHT22;14031;50.158;8.626;2022-10-17T02:22:56;14.90;99.90
16174;DHT22;14031;50.158;8.626;2022-10-17T02:25:34;14.90;99.90
16174;DHT22;14031;50.158;8.626;2022-10-17T02:28:14;14.90;99.90
16174;DHT22;14031;50.158;8.626;2022-10-17T02:30:45;14.90;99.90
16174;DHT22;14031;50.158;8.626;2022-10-17T02:33:19;14.90;99.90
16174;DHT22;14031;50.158;8.626;2022-10-17T02:35:48;14.90;99.90
16174;DHT22;14031;50.158;8.626;2022-10-17T02:38:17;14.80;99.90
16174;DHT22;14031;50.158;8.626;2022-10-17T02:40:46;14.80;99.90
16174;DHT22;14031;50.158;8.626;2022-10-17T02:43:14;14.80;99.90
16174;DHT22;14031;50.158;8.626;2022-10-17T02:45:41;14.80;99.90
16174;DHT22;14031;50.158;8.626;2022-10-17T02:48:10;14.80;99.90
16174;DHT22;14031;50.158;8.626;2022-10-17T02:50:48;14.80;99.90
16174;DHT22;14031;50.158;8.626;2022-10-17T02:53:24;14.80;99.90
16174;DHT22;14031;50.158;8.626;2022-10-17T02:55:59;14.80;99.90
16174;DHT22;14031;50.158;8.626;2022-10-17T02:58:31;14.80;99.90
16174;DHT22;14031;50.158;8.626;2022-10-17T03:00:59;14.80;99.90
16174;DHT22;14031;50.158;8.626;2022-10-17T03:03:30;14.70;99.90
16174;DHT22;14031;50.158;8.626;2022-10-17T03:05:58;14.80;99.90
16174;DHT22;14031;50.158;8.626;2022-10-17T03:08:25;14.80;99.90
16174;DHT22;14031;50.158;8.626;2022-10-17T03:10:52;14.70;99.90
16174;DHT22;14031;50.158;8.626;2022-10-17T03:13:18;14.70;99.90
16174;DHT22;14031;50.158;8.626;2022-10-17T03:15:47;14.70;99.90
16174;DHT22;14031;50.158;8.626;2022-10-17T03:18:13;14.70;99.90
16174;DHT22;14031;50.158;8.626;2022-10-17T03:20:40;14.70;99.90
16174;DHT22;14031;50.158;8.626;2022-10-17T03:23:08;14.70;99.90
16174;DHT22;14031;50.158;8.626;2022-10-17T03:25:35;14.70;99.90
16174;DHT22;14031;50.158;8.626;2022-10-17T03:28:02;14.70;99.90
16174;DHT22;14031;50.158;8.626;2022-10-17T03:30:30;14.70;99.90
16174;DHT22;14031;50.158;8.626;2022-10-17T03:32:57;14.70;99.90
16174;DHT22;14031;50.158;8.626;2022-10-17T03:35:25;14.70;99.90
16174;DHT22;14031;50.158;8.626;2022-10-17T03:37:53;14.70;99.90
16174;DHT22;14031;50.158;8.626;2022-10-17T03:40:21;14.70;99.90
16174;DHT22;14031;50.158;8.626;2022-10-17T03:42:48;14.70;99.90
16174;DHT22;14031;50.158;8.626;2022-10-17T03:45:15;14.70;99.90
16174;DHT22;14031;50.158;8.626;2022-10-17T03:47:42;14.70;99.90
16174;DHT22;14031;50.158;8.626;2022-10-17T03:50:08;14.70;99.90
16174;DHT22;14031;50.158;8.626;2022-10-17T03:52:35;14.70;99.90
16174;DHT22;14031;50.158;8.626;2022-10-17T03:55:04;14.70;99.90
16174;DHT22;14031;50.158;8.626;2022-10-17T03:57:33;14.60;99.90
16174;DHT22;14031;50.158;8.626;2022-10-17T04:00:01;14.60;99.90
16174;DHT22;14031;50.158;8.626;2022-10-17T04:02:28;14.60;99.90
16174;DHT22;14031;50.158;8.626;2022-10-17T04:04:54;14.70;99.90
16174;DHT22;14031;50.158;8.626;2022-10-17T04:07:21;14.60;99.90
16174;DHT22;14031;50.158;8.626;2022-10-17T04:09:48;14.60;99.90
16174;DHT22;14031;50.158;8.626;2022-10-17T04:12:15;14.50;99.90
16174;DHT22;14031;50.158;8.626;2022-10-17T04:14:46;14.50;99.90
16174;DHT22;14031;50.158;8.626;2022-10-17T04:17:15;14.60;99.90
16174;DHT22;14031;50.158;8.626;2022-10-17T04:19:47;14.50;99.90
16174;DHT22;14031;50.158;8.626;2022-10-17T04:22:14;14.50;99.90
16174;DHT22;14031;50.158;8.626;2022-10-17T04:24:41;14.50;99.90
16174;DHT22;14031;50.158;8.626;2022-10-17T04:27:07;14.60;99.90
16174;DHT22;14031;50.158;8.626;2022-10-17T04:29:36;14.60;99.90
16174;DHT22;14031;50.158;8.626;2022-10-17T04:32:04;14.70;99.90
16174;DHT22;14031;50.158;8.626;2022-10-17T04:34:33;14.50;99.90
16174;DHT22;14031;50.158;8.626;2022-10-17T04:37:00;14.40;99.90
16174;DHT22;14031;50.158;8.626;2022-10-17T04:39:27;14.50;99.90
16174;DHT22;14031;50.158;8.626;2022-10-17T04:41:53;14.50;99.90
16174;DHT22;14031;50.158;8.626;2022-10-17T04:44:20;14.50;99.90
16174;DHT22;14031;50.158;8.626;2022-10-17T04:46:47;14.50;99.90
16174;DHT22;14031;50.158;8.626;2022-10-17T04:49:25;14.50;99.90
16174;DHT22;14031;50.158;8.626;2022-10-17T04:51:51;14.50;99.90
16174;DHT22;14031;50.158;8.626;2022-10-17T04:54:21;14.50;99.90
16174;DHT22;14031;50.158;8.626;2022-10-17T04:56:50;14.50;99.90
16174;DHT22;14031;50.158;8.626;2022-10-17T04:59:17;14.60;99.90
16174;DHT22;14031;50.158;8.626;2022-10-17T05:01:44;14.50;99.90
16174;DHT22;14031;50.158;8.626;2022-10-17T05:04:18;14.50;99.90
16174;DHT22;14031;50.158;8.626;2022-10-17T05:06:45;14.40;99.90
16174;DHT22;14031;50.158;8.626;2022-10-17T05:09:12;14.40;99.90
16174;DHT22;14031;50.158;8.626;2022-10-17T05:11:39;14.40;99.90
16174;DHT22;14031;50.158;8.626;2022-10-17T05:14:05;14.50;99.90
16174;DHT22;14031;50.158;8.626;2022-10-17T05:16:32;14.50;99.90
16174;DHT22;14031;50.158;8.626;2022-10-17T05:19:00;14.50;99.90
16174;DHT22;14031;50.158;8.626;2022-10-17T05:21:29;14.40;99.90
16174;DHT22;14031;50.158;8.626;2022-10-17T05:23:56;14.30;99.90
16174;DHT22;14031;50.158;8.626;2022-10-17T05:26:24;14.40;99.90
16174;DHT22;14031;50.158;8.626;2022-10-17T05:28:51;14.40;99.90
16174;DHT22;14031;50.158;8.626;2022-10-17T05:31:19;14.40;99.90
16174;DHT22;14031;50.158;8.626;2022-10-17T05:33:46;14.40;99.90
16174;DHT22;14031;50.158;8.626;2022-10-17T05:36:12;14.40;99.90
16174;DHT22;14031;50.158;8.626;2022-10-17T05:38:41;14.40;99.90
16174;DHT22;14031;50.158;8.626;2022-10-17T05:41:09;14.40;99.90
16174;DHT22;14031;50.158;8.626;2022-10-17T05:43:35;14.50;99.90
16174;DHT22;14031;50.158;8.626;2022-10-17T05:46:03;14.40;99.90
16174;DHT22;14031;50.158;8.626;2022-10-17T05:48:31;14.40;99.90
16174;DHT22;14031;50.158;8.626;2022-10-17T05:50:58;14.40;99.90
16174;DHT22;14031;50.158;8.626;2022-10-17T05:53:25;14.40;99.90
16174;DHT22;14031;50.158;8.626;2022-10-17T05:55:57;14.40;99.90
16174;DHT22;14031;50.158;8.626;2022-10-17T05:58:25;14.40;99.90
16174;DHT22;14031;50.158;8.626;2022-10-17T06:00:55;14.40;99.90
16174;DHT22;14031;50.158;8.626;2022-10-17T06:03:22;14.40;99.90
16174;DHT22;14031;50.158;8.626;2022-10-17T06:05:49;14.40;99.90
16174;DHT22;14031;50.158;8.626;2022-10-17T06:08:16;14.50;99.90
16174;DHT22;14031;50.158;8.626;2022-10-17T06:10:46;14.40;99.90
16174;DHT22;14031;50.158;8.626;2022-10-17T06:13:14;14.40;99.90
16174;DHT22;14031;50.158;8.626;2022-10-17T06:15:41;14.40;99.90
16174;DHT22;14031;50.158;8.626;2022-10-17T06:18:08;14.40;99.90
16174;DHT22;14031;50.158;8.626;2022-10-17T06:20:34;14.40;99.90
16174;DHT22;14031;50.158;8.626;2022-10-17T06:23:01;14.40;99.90
16174;DHT22;14031;50.158;8.626;2022-10-17T06:25:29;14.40;99.90
16174;DHT22;14031;50.158;8.626;2022-10-17T06:27:56;14.30;99.90
16174;DHT22;14031;50.158;8.626;2022-10-17T06:30:25;14.40;99.90
16174;DHT22;14031;50.158;8.626;2022-10-17T06:32:52;14.60;99.90
16174;DHT22;14031;50.158;8.626;2022-10-17T06:35:19;14.50;99.90
16174;DHT22;14031;50.158;8.626;2022-10-17T06:37:46;14.50;99.90
16174;DHT22;14031;50.158;8.626;2022-10-17T06:40:13;14.50;99.90
16174;DHT22;14031;50.158;8.626;2022-10-17T06:42:42;14.50;99.90
16174;DHT22;14031;50.158;8.626;2022-10-17T06:45:09;14.50;99.90
16174;DHT22;14031;50.158;8.626;2022-10-17T06:47:38;14.60;99.90
16174;DHT22;14031;50.158;8.626;2022-10-17T06:50:05;14.60;99.90
16174;DHT22;14031;50.158;8.626;2022-10-17T06:52:32;14.60;99.90
16174;DHT22;14031;50.158;8.626;2022-10-17T06:54:58;14.60;99.90
16174;DHT22;14031;50.158;8.626;2022-10-17T06:57:26;14.60;99.90
16174;DHT22;14031;50.158;8.626;2022-10-17T06:59:53;14.60;99.90
16174;DHT22;14031;50.158;8.626;2022-10-17T07:02:22;14.70;99.90
16174;DHT22;14031;50.158;8.626;2022-10-17T07:04:50;14.70;99.90
16174;DHT22;14031;50.158;8.626;2022-10-17T07:07:17;14.70;99.90
16174;DHT22;14031;50.158;8.626;2022-10-17T07:09:44;14.70;99.90
16174;DHT22;14031;50.158;8.626;2022-10-17T07:12:10;14.80;99.90
16174;DHT22;14031;50.158;8.626;2022-10-17T07:14:37;14.90;99.90
16174;DHT22;14031;50.158;8.626;2022-10-17T07:17:04;14.80;99.90
16174;DHT22;14031;50.158;8.626;2022-10-17T07:19:31;14.90;99.90
16174;DHT22;14031;50.158;8.626;2022-10-17T07:21:59;14.90;99.90
16174;DHT22;14031;50.158;8.626;2022-10-17T07:24:26;15.00;99.90
16174;DHT22;14031;50.158;8.626;2022-10-17T07:26:53;15.00;99.90
16174;DHT22;14031;50.158;8.626;2022-10-17T07:29:19;15.10;99.90
16174;DHT22;14031;50.158;8.626;2022-10-17T07:31:46;15.20;99.90
16174;DHT22;14031;50.158;8.626;2022-10-17T07:34:14;15.20;99.90
16174;DHT22;14031;50.158;8.626;2022-10-17T07:36:41;15.30;99.90
16174;DHT22;14031;50.158;8.626;2022-10-17T07:39:09;15.30;99.90
16174;DHT22;14031;50.158;8.626;2022-10-17T07:41:39;15.40;99.90
16174;DHT22;14031;50.158;8.626;2022-10-17T07:44:05;15.50;99.90
16174;DHT22;14031;50.158;8.626;2022-10-17T07:46:32;15.60;99.90
16174;DHT22;14031;50.158;8.626;2022-10-17T07:48:59;15.70;99.90
16174;DHT22;14031;50.158;8.626;2022-10-17T07:51:26;15.70;99.90
16174;DHT22;14031;50.158;8.626;2022-10-17T07:53:53;15.80;99.90
16174;DHT22;14031;50.158;8.626;2022-10-17T07:56:21;15.90;99.90
16174;DHT22;14031;50.158;8.626;2022-10-17T07:58:49;16.00;99.90
16174;DHT22;14031;50.158;8.626;2022-10-17T08:01:16;16.10;99.90
16174;DHT22;14031;50.158;8.626;2022-10-17T08:03:44;16.30;99.90
16174;DHT22;14031;50.158;8.626;2022-10-17T08:06:13;16.40;99.90
16174;DHT22;14031;50.158;8.626;2022-10-17T08:08:40;16.50;99.90
16174;DHT22;14031;50.158;8.626;2022-10-17T08:11:09;16.60;99.90
16174;DHT22;14031;50.158;8.626;2022-10-17T08:13:38;16.70;99.90
16174;DHT22;14031;50.158;8.626;2022-10-17T08:16:07;16.70;99.90
16174;DHT22;14031;50.158;8.626;2022-10-17T08:18:35;16.80;99.90
16174;DHT22;14031;50.158;8.626;2022-10-17T08:21:03;17.00;99.90
16174;DHT22;14031;50.158;8.626;2022-10-17T08:23:31;17.00;99.90
16174;DHT22;14031;50.158;8.626;2022-10-17T08:25:58;17.10;99.90
16174;DHT22;14031;50.158;8.626;2022-10-17T08:28:25;17.10;99.90
16174;DHT22;14031;50.158;8.626;2022-10-17T08:31:02;17.20;99.90
16174;DHT22;14031;50.158;8.626;2022-10-17T08:33:29;17.20;99.90
16174;DHT22;14031;50.158;8.626;2022-10-17T08:35:57;17.20;99.90
16174;DHT22;14031;50.158;8.626;2022-10-17T08:38:24;17.20;99.90
16174;DHT22;14031;50.158;8.626;2022-10-17T08:40:58;17.30;99.90
16174;DHT22;14031;50.158;8.626;2022-10-17T08:43:36;17.30;99.90
16174;DHT22;14031;50.158;8.626;2022-10-17T08:46:09;17.40;99.90
16174;DHT22;14031;50.158;8.626;2022-10-17T08:48:41;17.50;99.90
16174;DHT22;14031;50.158;8.626;2022-10-17T08:51:12;17.50;99.90
16174;DHT22;14031;50.158;8.626;2022-10-17T08:53:45;17.60;99.90
16174;DHT22;14031;50.158;8.626;2022-10-17T08:56:20;17.60;99.90
16174;DHT22;14031;50.158;8.626;2022-10-17T08:58:47;17.70;99.90
16174;DHT22;14031;50.158;8.626;2022-10-17T09:01:28;17.70;99.90
16174;DHT22;14031;50.158;8.626;2022-10-17T09:06:51;17.80;99.90
16174;DHT22;14031;50.158;8.626;2022-10-17T09:09:28;17.90;99.90
16174;DHT22;14031;50.158;8.626;2022-10-17T09:12:04;17.80;99.90
16174;DHT22;14031;50.158;8.626;2022-10-17T09:17:44;17.90;99.90
16174;DHT22;14031;50.158;8.626;2022-10-17T09:20:18;17.90;99.90
16174;DHT22;14031;50.158;8.626;2022-10-17T09:22:48;17.90;99.90
16174;DHT22;14031;50.158;8.626;2022-10-17T09:25:18;17.90;99.90
16174;DHT22;14031;50.158;8.626;2022-10-17T09:27:48;18.00;99.90
16174;DHT22;14031;50.158;8.626;2022-10-17T09:30:33;18.00;99.90
16174;DHT22;14031;50.158;8.626;2022-10-17T09:33:09;18.00;99.90
16174;DHT22;14031;50.158;8.626;2022-10-17T09:35:36;18.00;99.90
16174;DHT22;14031;50.158;8.626;2022-10-17T09:38:03;18.10;99.90
16174;DHT22;14031;50.158;8.626;2022-10-17T09:40:32;18.10;99.90
16174;DHT22;14031;50.158;8.626;2022-10-17T09:43:00;18.20;99.90
16174;DHT22;14031;50.158;8.626;2022-10-17T09:45:31;18.20;99.90
16174;DHT22;14031;50.158;8.626;2022-10-17T09:48:10;18.30;99.90
16174;DHT22;14031;50.158;8.626;2022-10-17T09:50:39;18.30;99.90
16174;DHT22;14031;50.158;8.626;2022-10-17T09:53:12;18.30;99.90
16174;DHT22;14031;50.158;8.626;2022-10-17T09:55:41;18.30;99.90
16174;DHT22;14031;50.158;8.626;2022-10-17T09:58:10;18.40;99.90
16174;DHT22;14031;50.158;8.626;2022-10-17T10:00:39;18.40;99.90
16174;DHT22;14031;50.158;8.626;2022-10-17T10:03:16;18.40;99.90
16174;DHT22;14031;50.158;8.626;2022-10-17T10:05:58;18.50;99.90
16174;DHT22;14031;50.158;8.626;2022-10-17T10:08:27;18.50;99.90
16174;DHT22;14031;50.158;8.626;2022-10-17T10:10:59;18.60;99.90
16174;DHT22;14031;50.158;8.626;2022-10-17T10:13:29;18.60;99.90
16174;DHT22;14031;50.158;8.626;2022-10-17T10:16:14;18.60;99.90
16174;DHT22;14031;50.158;8.626;2022-10-17T10:18:43;18.80;99.90
16174;DHT22;14031;50.158;8.626;2022-10-17T10:21:12;18.80;99.90
16174;DHT22;14031;50.158;8.626;2022-10-17T10:23:39;18.90;99.90
16174;DHT22;14031;50.158;8.626;2022-10-17T10:26:22;18.90;99.90
16174;DHT22;14031;50.158;8.626;2022-10-17T10:28:58;19.00;99.90
16174;DHT22;14031;50.158;8.626;2022-10-17T10:31:30;19.10;99.90
16174;DHT22;14031;50.158;8.626;2022-10-17T10:34:01;19.10;99.90
16174;DHT22;14031;50.158;8.626;2022-10-17T10:36:47;19.20;99.90
16174;DHT22;14031;50.158;8.626;2022-10-17T10:39:33;19.20;99.90
16174;DHT22;14031;50.158;8.626;2022-10-17T10:42:03;19.20;99.90
16174;DHT22;14031;50.158;8.626;2022-10-17T10:44:32;19.30;99.90
16174;DHT22;14031;50.158;8.626;2022-10-17T10:47:18;19.30;99.90
16174;DHT22;14031;50.158;8.626;2022-10-17T10:49:50;19.40;99.90
16174;DHT22;14031;50.158;8.626;2022-10-17T10:52:24;19.50;99.90
16174;DHT22;14031;50.158;8.626;2022-10-17T10:54:58;19.50;99.90
16174;DHT22;14031;50.158;8.626;2022-10-17T10:57:30;19.60;99.90
16174;DHT22;14031;50.158;8.626;2022-10-17T11:00:03;19.70;99.90
16174;DHT22;14031;50.158;8.626;2022-10-17T11:02:35;19.80;99.90
16174;DHT22;14031;50.158;8.626;2022-10-17T11:05:10;19.80;99.90
16174;DHT22;14031;50.158;8.626;2022-10-17T11:07:42;19.90;99.90
16174;DHT22;14031;50.158;8.626;2022-10-17T11:10:15;19.90;99.90
16174;DHT22;14031;50.158;8.626;2022-10-17T11:12:47;20.00;99.90
16174;DHT22;14031;50.158;8.626;2022-10-17T11:15:20;20.00;99.90
16174;DHT22;14031;50.158;8.626;2022-10-17T11:17:56;20.10;99.90
16174;DHT22;14031;50.158;8.626;2022-10-17T11:20:32;20.10;99.90
16174;DHT22;14031;50.158;8.626;2022-10-17T11:23:08;20.20;99.90
16174;DHT22;14031;50.158;8.626;2022-10-17T11:25:37;20.20;99.90
16174;DHT22;14031;50.158;8.626;2022-10-17T11:28:19;20.20;99.90
16174;DHT22;14031;50.158;8.626;2022-10-17T11:30:50;20.20;99.90
16174;DHT22;14031;50.158;8.626;2022-10-17T11:33:24;20.30;99.90
16174;DHT22;14031;50.158;8.626;2022-10-17T11:35:56;20.30;99.90
16174;DHT22;14031;50.158;8.626;2022-10-17T11:38:35;20.30;99.90
16174;DHT22;14031;50.158;8.626;2022-10-17T11:41:05;20.40;99.90
16174;DHT22;14031;50.158;8.626;2022-10-17T11:43:37;20.40;99.90
16174;DHT22;14031;50.158;8.626;2022-10-17T11:46:13;20.50;99.90
16174;DHT22;14031;50.158;8.626;2022-10-17T11:48:44;20.70;99.90
16174;DHT22;14031;50.158;8.626;2022-10-17T11:51:15;20.70;99.90
16174;DHT22;14031;50.158;8.626;2022-10-17T11:53:46;20.90;99.90
16174;DHT22;14031;50.158;8.626;2022-10-17T11:56:17;21.00;99.90
16174;DHT22;14031;50.158;8.626;2022-10-17T11:58:51;21.10;99.90
16174;DHT22;14031;50.158;8.626;2022-10-17T12:01:30;21.20;99.90
16174;DHT22;14031;50.158;8.626;2022-10-17T12:04:11;21.30;99.90
16174;DHT22;14031;50.158;8.626;2022-10-17T12:06:55;21.40;99.90
16174;DHT22;14031;50.158;8.626;2022-10-17T12:09:30;21.60;99.90
16174;DHT22;14031;50.158;8.626;2022-10-17T12:11:59;21.60;99.90
16174;DHT22;14031;50.158;8.626;2022-10-17T12:14:38;21.70;99.90
16174;DHT22;14031;50.158;8.626;2022-10-17T12:17:29;21.70;99.90
16174;DHT22;14031;50.158;8.626;2022-10-17T12:20:16;21.80;99.90
16174;DHT22;14031;50.158;8.626;2022-10-17T12:22:53;21.90;99.90
16174;DHT22;14031;50.158;8.626;2022-10-17T12:25:22;22.00;99.90
16174;DHT22;14031;50.158;8.626;2022-10-17T12:27:51;22.00;99.90
16174;DHT22;14031;50.158;8.626;2022-10-17T12:30:27;22.10;99.90
16174;DHT22;14031;50.158;8.626;2022-10-17T12:35:43;22.40;99.90
16174;DHT22;14031;50.158;8.626;2022-10-17T12:38:22;22.50;99.90
16174;DHT22;14031;50.158;8.626;2022-10-17T12:40:56;22.60;99.90
16174;DHT22;14031;50.158;8.626;2022-10-17T12:43:50;22.70;99.90
16174;DHT22;14031;50.158;8.626;2022-10-17T12:46:40;22.90;99.90
16174;DHT22;14031;50.158;8.626;2022-10-17T12:49:42;23.00;99.90
16174;DHT22;14031;50.158;8.626;2022-10-17T12:55:13;23.20;99.90
16174;DHT22;14031;50.158;8.626;2022-10-17T12:57:53;23.20;99.90
16174;DHT22;14031;50.158;8.626;2022-10-17T13:00:30;23.10;99.90
16174;DHT22;14031;50.158;8.626;2022-10-17T13:03:04;23.10;99.90
16174;DHT22;14031;50.158;8.626;2022-10-17T13:05:34;23.10;99.90
16174;DHT22;14031;50.158;8.626;2022-10-17T13:08:13;23.10;99.90
16174;DHT22;14031;50.158;8.626;2022-10-17T13:10:45;23.20;99.90
16174;DHT22;14031;50.158;8.626;2022-10-17T13:13:16;23.30;99.90
16174;DHT22;14031;50.158;8.626;2022-10-17T13:15:48;23.30;99.90
16174;DHT22;14031;50.158;8.626;2022-10-17T13:18:18;23.30;99.90
16174;DHT22;14031;50.158;8.626;2022-10-17T13:20:58;23.30;99.90
16174;DHT22;14031;50.158;8.626;2022-10-17T13:23:29;23.50;99.90
16174;DHT22;14031;50.158;8.626;2022-10-17T13:26:12;23.60;99.90
16174;DHT22;14031;50.158;8.626;2022-10-17T13:28:41;23.80;99.90
16174;DHT22;14031;50.158;8.626;2022-10-17T13:31:26;23.90;99.90
16174;DHT22;14031;50.158;8.626;2022-10-17T13:33:55;24.10;99.90
16174;DHT22;14031;50.158;8.626;2022-10-17T13:36:23;24.30;99.90
16174;DHT22;14031;50.158;8.626;2022-10-17T13:38:53;24.40;99.90
16174;DHT22;14031;50.158;8.626;2022-10-17T13:41:25;24.50;99.90
16174;DHT22;14031;50.158;8.626;2022-10-17T13:43:53;24.60;99.90
16174;DHT22;14031;50.158;8.626;2022-10-17T13:46:25;24.80;99.90
16174;DHT22;14031;50.158;8.626;2022-10-17T13:48:54;24.90;99.90
16174;DHT22;14031;50.158;8.626;2022-10-17T13:51:22;25.10;99.90
16174;DHT22;14031;50.158;8.626;2022-10-17T13:53:49;25.30;99.90
16174;DHT22;14031;50.158;8.626;2022-10-17T13:56:23;25.40;99.90
16174;DHT22;14031;50.158;8.626;2022-10-17T13:58:52;25.40;99.90
16174;DHT22;14031;50.158;8.626;2022-10-17T14:01:20;25.50;99.90
16174;DHT22;14031;50.158;8.626;2022-10-17T14:04:05;25.60;99.90
16174;DHT22;14031;50.158;8.626;2022-10-17T14:06:43;25.70;99.90
16174;DHT22;14031;50.158;8.626;2022-10-17T14:09:17;25.80;99.90
16174;DHT22;14031;50.158;8.626;2022-10-17T14:11:56;26.00;99.90
16174;DHT22;14031;50.158;8.626;2022-10-17T14:14:27;26.20;99.90
16174;DHT22;14031;50.158;8.626;2022-10-17T14:16:54;26.30;99.90
16174;DHT22;14031;50.158;8.626;2022-10-17T14:19:27;26.40;99.90
16174;DHT22;14031;50.158;8.626;2022-10-17T14:22:02;26.40;99.90
16174;DHT22;14031;50.158;8.626;2022-10-17T14:24:42;26.40;99.90
16174;DHT22;14031;50.158;8.626;2022-10-17T14:27:30;26.40;99.90
16174;DHT22;14031;50.158;8.626;2022-10-17T14:30:00;26.40;99.90
16174;DHT22;14031;50.158;8.626;2022-10-17T14:32:30;26.40;99.90
16174;DHT22;14031;50.158;8.626;2022-10-17T14:35:00;26.40;99.90
16174;DHT22;14031;50.158;8.626;2022-10-17T14:37:40;26.30;99.90
16174;DHT22;14031;50.158;8.626;2022-10-17T14:40:19;26.30;99.90
16174;DHT22;14031;50.158;8.626;2022-10-17T14:42:49;26.20;99.90
16174;DHT22;14031;50.158;8.626;2022-10-17T14:45:24;25.90;99.90
16174;DHT22;14031;50.158;8.626;2022-10-17T14:47:54;25.50;99.90
16174;DHT22;14031;50.158;8.626;2022-10-17T14:50:23;25.10;99.90
16174;DHT22;14031;50.158;8.626;2022-10-17T14:53:00;24.80;99.90
16174;DHT22;14031;50.158;8.626;2022-10-17T14:55:29;24.50;99.90
16174;DHT22;14031;50.158;8.626;2022-10-17T14:57:57;24.20;99.90
16174;DHT22;14031;50.158;8.626;2022-10-17T15:00:24;24.00;99.90
16174;DHT22;14031;50.158;8.626;2022-10-17T15:02:53;23.80;99.90
16174;DHT22;14031;50.158;8.626;2022-10-17T15:05:20;23.60;99.90
16174;DHT22;14031;50.158;8.626;2022-10-17T15:07:48;23.50;99.90
16174;DHT22;14031;50.158;8.626;2022-10-17T15:10:24;23.40;99.90
16174;DHT22;14031;50.158;8.626;2022-10-17T15:12:51;23.30;99.90
16174;DHT22;14031;50.158;8.626;2022-10-17T15:15:19;23.30;99.90
16174;DHT22;14031;50.158;8.626;2022-10-17T15:17:46;23.10;99.90
16174;DHT22;14031;50.158;8.626;2022-10-17T15:20:15;23.10;99.90
16174;DHT22;14031;50.158;8.626;2022-10-17T15:22:42;23.00;99.90
16174;DHT22;14031;50.158;8.626;2022-10-17T15:25:09;22.80;99.90
16174;DHT22;14031;50.158;8.626;2022-10-17T15:27:35;22.80;99.90
16174;DHT22;14031;50.158;8.626;2022-10-17T15:30:03;22.70;99.90
16174;DHT22;14031;50.158;8.626;2022-10-17T15:32:34;22.70;99.90
16174;DHT22;14031;50.158;8.626;2022-10-17T15:35:01;22.60;99.90
16174;DHT22;14031;50.158;8.626;2022-10-17T15:37:32;22.60;99.90
16174;DHT22;14031;50.158;8.626;2022-10-17T15:39:59;22.60;99.90
16174;DHT22;14031;50.158;8.626;2022-10-17T15:42:27;22.70;99.90
16174;DHT22;14031;50.158;8.626;2022-10-17T15:44:55;22.70;99.90
16174;DHT22;14031;50.158;8.626;2022-10-17T15:47:24;22.70;99.90
16174;DHT22;14031;50.158;8.626;2022-10-17T15:49:54;22.70;99.90
16174;DHT22;14031;50.158;8.626;2022-10-17T15:52:21;22.70;99.90
16174;DHT22;14031;50.158;8.626;2022-10-17T15:54:48;22.70;99.90
16174;DHT22;14031;50.158;8.626;2022-10-17T15:57:17;22.60;99.90
16174;DHT22;14031;50.158;8.626;2022-10-17T15:59:44;22.50;99.90
16174;DHT22;14031;50.158;8.626;2022-10-17T16:02:12;22.50;99.90
16174;DHT22;14031;50.158;8.626;2022-10-17T16:04:40;22.30;99.90